createdAt,value
2019-05-06T00:06:00.843Z,1.10
2019-05-06T00:08:52.020Z,1.37
2019-05-06T00:11:59.087Z,1.30
2019-05-06T00:14:54.179Z,1.40
2019-05-06T00:18:13.970Z,1.20
2019-05-06T00:21:06.088Z,1.20
2019-05-06T00:27:16.740Z,1.30
2019-05-06T00:30:05.788Z,1.40
2019-05-06T00:33:04.349Z,1.33
2019-05-06T00:36:04.549Z,1.13
2019-05-06T00:38:56.195Z,1.40
2019-05-06T00:42:34.398Z,1.60
2019-05-06T00:45:53.986Z,1.40
2019-05-06T00:48:44.929Z,1.23
2019-05-06T00:51:34.113Z,1.60
2019-05-06T00:54:28.545Z,1.37
2019-05-06T00:57:44.919Z,1.40
2019-05-06T01:04:04.584Z,1.40
2019-05-06T01:07:03.998Z,1.53
2019-05-06T01:09:54.169Z,1.50
2019-05-06T01:12:46.022Z,1.57
2019-05-06T01:18:39.481Z,1.70
2019-05-06T01:21:34.024Z,1.50
2019-05-06T01:24:23.882Z,1.77
2019-05-06T01:27:12.018Z,1.47
2019-05-06T01:30:15.807Z,1.50
2019-05-06T01:33:04.452Z,1.57
2019-05-06T01:35:55.863Z,1.60
2019-05-06T01:39:25.305Z,1.70
2019-05-06T01:42:25.546Z,1.53
2019-05-06T01:45:34.735Z,1.67
2019-05-06T01:48:40.366Z,1.70
2019-05-06T01:51:31.880Z,1.53
2019-05-06T01:54:21.160Z,1.63
2019-05-06T01:57:15.025Z,1.80
2019-05-06T02:00:06.694Z,1.63
2019-05-06T02:02:54.864Z,1.80
2019-05-06T02:05:44.450Z,1.70
2019-05-06T02:08:33.690Z,1.80
2019-05-06T02:11:48.193Z,1.63
2019-05-06T02:22:06.952Z,1.60
2019-05-06T02:24:58.313Z,2.60
2019-05-06T02:27:49.048Z,1.47
2019-05-06T02:31:36.332Z,1.60
2019-05-06T02:34:10.532Z,1.70
2019-05-06T02:37:25.397Z,1.70
2019-05-06T02:57:25.249Z,2.00
2019-05-06T03:00:16.995Z,1.80
2019-05-06T03:03:16.252Z,2.10
2019-05-06T03:07:07.735Z,2.33
2019-05-06T03:09:55.968Z,2.03
2019-05-06T03:14:17.477Z,1.90
2019-05-06T03:16:15.840Z,2.00
2019-05-06T03:19:04.283Z,2.10
2019-05-06T03:33:27.538Z,2.20
2019-05-06T03:35:52.300Z,1.80
2019-05-06T03:38:43.169Z,2.30
2019-05-06T03:45:53.809Z,2.50
2019-05-06T03:48:59.763Z,3.03
2019-05-06T03:58:26.869Z,2.20
2019-05-06T04:01:20.296Z,1.80
2019-05-06T04:07:45.821Z,1.90
2019-05-06T04:10:37.155Z,1.90
2019-05-06T04:13:25.431Z,2.20
2019-05-06T04:23:17.433Z,1.60
2019-05-06T04:26:27.362Z,1.50
2019-05-06T04:32:26.448Z,2.37
2019-05-06T04:38:47.849Z,1.80
2019-05-06T04:41:57.471Z,2.10
2019-05-06T04:44:46.419Z,1.90
2019-05-06T04:47:43.257Z,2.40
2019-05-06T04:50:49.296Z,2.17
2019-05-06T04:53:44.507Z,1.97
2019-05-06T04:56:36.616Z,3.10
2019-05-06T04:59:27.412Z,2.30
2019-05-06T05:02:33.706Z,1.90
2019-05-06T05:05:32.818Z,2.10
2019-05-06T05:08:46.559Z,1.83
2019-05-06T05:11:58.438Z,1.87
2019-05-06T05:14:55.474Z,2.17
2019-05-06T05:18:07.757Z,1.70
2019-05-06T05:21:24.432Z,1.60
2019-05-06T05:24:12.371Z,2.20
2019-05-06T05:27:03.675Z,1.90
2019-05-06T05:29:56.313Z,1.73
2019-05-06T05:33:22.474Z,2.10
2019-05-06T05:36:12.424Z,2.03
2019-05-06T05:49:24.627Z,2.40
2019-05-06T05:52:22.520Z,2.20
2019-05-06T05:55:12.147Z,1.83
2019-05-06T05:58:24.568Z,2.10
2019-05-06T06:01:23.243Z,2.30
2019-05-06T06:04:14.751Z,2.03
2019-05-06T06:07:54.357Z,2.00
2019-05-06T06:11:09.814Z,2.23
2019-05-06T06:17:56.693Z,2.13
2019-05-06T06:24:32.045Z,1.83
2019-05-06T06:27:19.422Z,1.93
2019-05-06T06:33:13.012Z,6.73
2019-05-06T06:36:07.570Z,1.90
2019-05-06T06:39:03.067Z,2.03
2019-05-06T06:41:51.936Z,2.23
2019-05-06T06:44:42.815Z,2.07
2019-05-06T06:47:33.821Z,2.10
2019-05-06T06:50:22.143Z,2.60
2019-05-06T06:53:25.940Z,2.50
2019-05-06T06:56:32.814Z,2.50
2019-05-06T07:02:55.092Z,2.50
2019-05-06T07:09:25.857Z,1.87
2019-05-06T07:12:13.579Z,2.50
2019-05-06T07:15:02.312Z,2.03
2019-05-06T07:21:22.577Z,1.73
2019-05-06T07:24:14.252Z,1.90
2019-05-06T07:27:08.306Z,2.10
2019-05-06T07:29:55.879Z,2.07
2019-05-06T07:32:44.627Z,2.17
2019-05-06T07:35:40.373Z,1.93
2019-05-06T07:41:58.324Z,4.73
2019-05-06T07:45:06.765Z,1.90
2019-05-06T07:48:08.034Z,2.50
2019-05-06T07:51:03.075Z,2.93
2019-05-06T07:53:52.467Z,1.77
2019-05-06T07:56:42.716Z,1.80
2019-05-06T07:59:33.385Z,1.80
2019-05-06T08:02:42.616Z,1.50
2019-05-06T08:08:43.024Z,1.80
2019-05-06T08:11:30.048Z,1.40
2019-05-06T08:14:22.544Z,1.50
2019-05-06T08:17:52.426Z,1.60
2019-05-06T08:20:43.230Z,1.70
2019-05-06T08:24:04.403Z,1.67
2019-05-06T08:26:56.269Z,1.77
2019-05-06T08:29:43.895Z,1.60
2019-05-06T08:32:32.198Z,1.80
2019-05-06T08:35:26.504Z,1.53
2019-05-06T08:38:18.295Z,1.40
2019-05-06T08:41:28.737Z,1.30
2019-05-06T08:43:58.070Z,1.20
2019-05-06T08:50:22.922Z,1.13
2019-05-06T09:03:42.534Z,1.30
2019-05-06T09:13:24.546Z,1.30
2019-05-06T09:16:15.215Z,1.27
2019-05-06T09:19:04.589Z,1.30
2019-05-06T09:21:55.498Z,1.47
2019-05-06T09:25:02.549Z,1.40
2019-05-06T09:28:23.387Z,1.30
2019-05-06T09:31:24.370Z,2.20
2019-05-06T09:34:23.366Z,1.30
2019-05-06T09:37:14.331Z,1.40
2019-05-06T09:47:22.943Z,1.53
2019-05-06T10:07:14.122Z,1.50
2019-05-06T10:10:22.689Z,1.30
2019-05-06T10:12:59.566Z,1.40
2019-05-06T10:16:12.980Z,1.40
2019-05-06T10:19:22.400Z,1.30
2019-05-06T10:29:32.598Z,1.53
2019-05-06T10:32:44.588Z,1.70
2019-05-06T10:35:35.383Z,2.07
2019-05-06T10:38:35.080Z,2.00
2019-05-06T10:41:24.035Z,1.50
2019-05-06T10:44:19.533Z,1.37
2019-05-06T10:51:07.496Z,1.00
2019-05-06T10:57:40.444Z,0.80
2019-05-06T11:00:29.142Z,0.90
2019-05-06T11:03:23.351Z,1.33
2019-05-06T11:06:14.212Z,0.90
2019-05-06T11:09:07.460Z,0.80
2019-05-06T11:19:34.175Z,0.87
2019-05-06T11:22:32.659Z,1.10
2019-05-06T11:25:23.518Z,1.33
2019-05-06T11:28:35.324Z,1.63
2019-05-06T11:35:45.289Z,1.43
2019-05-06T11:38:33.115Z,1.20
2019-05-06T11:41:23.406Z,1.50
2019-05-06T11:44:14.796Z,1.33
2019-05-06T11:47:09.393Z,1.10
2019-05-06T11:50:07.340Z,1.37
2019-05-06T11:52:56.772Z,1.20
2019-05-06T11:55:45.048Z,1.70
2019-05-06T11:58:53.117Z,1.23
2019-05-06T12:01:49.224Z,1.40
2019-05-06T12:04:36.981Z,1.30
2019-05-06T12:07:24.946Z,1.50
2019-05-06T12:10:33.114Z,1.50
2019-05-06T12:23:57.830Z,1.60
2019-05-06T12:30:59.056Z,1.70
2019-05-06T12:33:49.441Z,1.80
2019-05-06T12:40:13.665Z,1.60
2019-05-06T12:43:22.588Z,1.40
2019-05-06T12:46:33.233Z,1.30
2019-05-06T12:53:26.787Z,1.37
2019-05-06T12:56:23.208Z,1.10
2019-05-06T13:02:38.766Z,1.27
2019-05-06T13:05:33.357Z,1.10
2019-05-06T13:08:49.807Z,1.17
2019-05-06T13:11:40.009Z,1.20
2019-05-06T13:17:38.595Z,1.43
2019-05-06T13:20:29.018Z,1.20
2019-05-06T13:23:37.673Z,1.10
2019-05-06T13:26:29.053Z,1.00
2019-05-06T13:36:53.310Z,1.13
2019-05-06T13:40:02.298Z,0.73
2019-05-06T13:43:07.767Z,0.90
2019-05-06T13:46:02.816Z,0.90
2019-05-06T13:58:43.364Z,0.80
2019-05-06T14:01:36.440Z,1.03
2019-05-06T14:05:02.727Z,1.10
2019-05-06T14:08:14.517Z,0.80
2019-05-06T14:11:18.080Z,0.90
2019-05-06T14:14:06.134Z,1.00
2019-05-06T14:16:55.703Z,1.07
2019-05-06T14:26:24.980Z,1.10
2019-05-06T14:39:07.870Z,1.00
2019-05-06T14:42:03.916Z,1.20
2019-05-06T14:44:52.030Z,0.70
2019-05-06T14:51:02.433Z,0.40
2019-05-06T14:57:45.157Z,0.50
2019-05-06T15:00:58.525Z,0.60
2019-05-06T15:03:34.416Z,0.60
2019-05-06T15:06:45.374Z,1.10
2019-05-06T15:09:58.059Z,0.50
2019-05-06T15:12:34.641Z,0.70
2019-05-06T15:15:28.603Z,0.53
2019-05-06T15:18:18.066Z,0.60
2019-05-06T15:21:32.236Z,0.80
2019-05-06T15:24:07.613Z,0.60
2019-05-06T15:30:43.009Z,0.53
2019-05-06T15:33:56.340Z,0.60
2019-05-06T15:36:52.815Z,0.63
2019-05-06T15:40:12.444Z,0.50
2019-05-06T15:43:26.286Z,0.70
2019-05-06T15:50:13.008Z,0.83
2019-05-06T15:53:29.082Z,0.47
2019-05-06T15:56:56.937Z,0.80
2019-05-06T16:03:47.605Z,1.23
2019-05-06T16:10:13.312Z,1.00
2019-05-06T16:13:06.843Z,1.13
2019-05-06T16:19:05.433Z,0.90
2019-05-06T16:22:04.171Z,1.30
2019-05-06T16:25:03.395Z,1.40
2019-05-06T16:28:05.962Z,1.70
2019-05-06T16:31:02.989Z,1.20
2019-05-06T16:33:53.694Z,1.20
2019-05-06T16:36:43.077Z,1.07
2019-05-06T16:39:35.782Z,1.40
2019-05-06T16:42:26.173Z,0.97
2019-05-06T16:45:14.104Z,1.40
2019-05-06T16:54:52.161Z,1.10
2019-05-06T16:58:09.179Z,1.33
2019-05-06T17:00:38.732Z,1.20
2019-05-06T17:04:04.073Z,1.37
2019-05-06T17:06:52.486Z,1.60
2019-05-06T17:09:58.035Z,1.20
2019-05-06T17:12:48.735Z,1.60
2019-05-06T17:16:13.705Z,1.67
2019-05-06T17:29:40.195Z,0.50
2019-05-06T17:32:55.041Z,0.40
2019-05-06T17:35:29.167Z,0.50
2019-05-06T17:38:23.212Z,0.70
2019-05-06T17:41:12.327Z,0.53
2019-05-06T17:44:02.814Z,0.40
2019-05-06T17:47:13.085Z,0.57
2019-05-06T17:50:37.063Z,0.50
2019-05-06T17:53:26.107Z,0.63
2019-05-06T17:56:14.039Z,0.60
2019-05-06T17:59:03.307Z,0.47
2019-05-06T18:01:53.248Z,2.50
2019-05-06T18:04:44.272Z,0.60
2019-05-06T18:10:39.372Z,0.50
2019-05-06T18:16:42.567Z,0.63
2019-05-06T18:36:35.245Z,1.00
2019-05-06T18:39:23.038Z,0.80
2019-05-06T18:46:12.339Z,1.00
2019-05-06T18:49:44.952Z,0.80
2019-05-06T18:52:52.850Z,1.20
2019-05-06T18:55:46.300Z,0.90
2019-05-06T19:02:13.117Z,0.80
2019-05-06T19:05:13.059Z,1.00
2019-05-06T19:08:02.647Z,0.90
2019-05-06T19:10:53.201Z,0.80
2019-05-06T19:13:44.584Z,0.73
2019-05-06T19:30:55.588Z,0.80
2019-05-06T19:33:49.150Z,0.90
2019-05-06T19:36:47.162Z,0.97
2019-05-06T19:39:49.048Z,1.00
2019-05-06T19:42:55.609Z,0.90
2019-05-06T19:46:21.915Z,0.77
2019-05-06T19:52:34.177Z,0.83
2019-05-06T19:59:02.760Z,0.67
2019-05-06T20:01:58.876Z,0.70
2019-05-06T20:05:22.739Z,0.90
2019-05-06T20:11:59.983Z,0.73
2019-05-06T20:14:52.491Z,0.77
2019-05-06T20:17:43.210Z,0.70
2019-05-06T20:20:34.345Z,0.70
2019-05-06T20:24:02.300Z,0.70
2019-05-06T20:26:53.974Z,0.60
2019-05-06T20:29:45.167Z,0.50
2019-05-06T20:32:39.428Z,0.80
2019-05-06T20:36:12.623Z,0.50
2019-05-06T20:42:33.392Z,0.40
2019-05-06T20:45:22.362Z,0.60
2019-05-06T20:48:16.602Z,0.50
2019-05-06T20:51:22.655Z,0.60
2019-05-06T20:54:12.931Z,0.57
2019-05-06T20:57:02.564Z,0.50
2019-05-06T20:59:52.564Z,0.40
2019-05-06T21:02:54.227Z,0.60
2019-05-06T21:09:18.510Z,0.60
2019-05-06T21:12:06.520Z,0.50
2019-05-06T21:15:02.326Z,0.50
2019-05-06T21:17:50.767Z,1.30
2019-05-06T21:20:39.469Z,0.67
2019-05-06T21:23:48.220Z,0.60
2019-05-06T21:26:35.834Z,0.53
2019-05-06T21:29:23.689Z,0.40
2019-05-06T21:32:33.193Z,0.67
2019-05-06T21:35:24.290Z,0.53
2019-05-06T21:38:12.326Z,0.60
2019-05-06T21:44:29.627Z,0.33
2019-05-06T21:47:24.062Z,0.70
2019-05-06T21:50:17.747Z,0.67
2019-05-06T21:56:57.775Z,0.60
2019-05-06T21:59:52.376Z,0.50
2019-05-06T22:02:43.468Z,0.60
2019-05-06T22:05:32.056Z,0.70
2019-05-06T22:08:51.907Z,0.53
2019-05-06T22:11:54.534Z,0.50
2019-05-06T22:17:54.327Z,0.70
2019-05-06T22:21:27.267Z,0.90
2019-05-06T22:24:17.385Z,0.50
2019-05-06T22:30:54.116Z,0.70
2019-05-06T22:33:53.715Z,0.57
2019-05-06T22:36:58.118Z,0.60
2019-05-06T22:39:52.734Z,0.50
2019-05-06T22:46:12.179Z,0.80
2019-05-06T22:49:02.584Z,0.63
2019-05-06T22:52:55.972Z,0.70
2019-05-06T22:55:04.145Z,0.50
2019-05-06T22:58:03.857Z,0.60
2019-05-06T23:01:19.436Z,0.80
2019-05-06T23:08:03.144Z,0.87
2019-05-06T23:11:06.731Z,0.60
2019-05-06T23:13:57.268Z,0.67
2019-05-06T23:23:25.787Z,0.60
2019-05-06T23:26:54.313Z,0.50
2019-05-06T23:36:41.765Z,0.57
2019-05-06T23:40:03.500Z,0.57
2019-05-06T23:43:06.204Z,0.90
2019-05-06T23:46:32.299Z,0.80
2019-05-06T23:53:07.590Z,0.90
